Tropical Cyclones
[Index]
Season 2019-2020 Tropical Cyclone ESTHER Track Map
Season 2019-2020 Summaries (Operational Data): [AU] [SIO] [SPAC] [SH]
<<- Previous TC | 2019-2020 Season | Next TC ->>

click for intensity scale information  Lat/long Grid: Show Hide

 Date Labels: Show Hide

Operational Tropical Cyclone Data

Name: ESTHER
Number: 2019

20 Feb 2020 00:00 UTC to 01 Mar 2020 12:00 UTC

    date/time    lat    long     hPa   cat  kts
2020-02-20 00   12.8   140.4    1010         15          
2020-02-20 06   12.9   140.2    1010         15          
2020-02-20 12   13.4   139.9    1004         15          
2020-02-20 18   13.6   139.8    1005         15          
2020-02-21 00   13.8   139.2    1005         15          
2020-02-21 06   13.3   139.8    1002         20          
2020-02-21 12   13.5   139.1    1005         20          
2020-02-21 18   13.6   138.8    1005         20          
2020-02-22 00   13.4   138.6    1004         25          
2020-02-22 06   13.5   138.9    1003         25          
2020-02-22 12   13.7   139.1    1003         25          
2020-02-22 18   13.9   139.1     998         30          
2020-02-23 00   14.4   139.2    1001         30          
2020-02-23 06   14.8   139.4    1000         30          
2020-02-23 12   15.6   139.5     996    1    35          
2020-02-23 18   16.1   139.1     995    1    40          
2020-02-24 00   16.6   138.3     996    1    45          
2020-02-24 06   16.7   137.7     992    2    50          
2020-02-24 12   16.8   137.0     997    1    40          
2020-02-24 18   16.8   136.6    1000         30          
2020-02-25 00   16.8   136.0    1000         30          
2020-02-25 06   17.4   135.2     998         30          
2020-02-25 12   17.1   134.3     999         30          
2020-02-25 18   17.1   133.6     998         30          
2020-02-26 00   16.5   133.5     997    1    35          
2020-02-26 06   16.4   132.3     997    1    35          
2020-02-26 12   15.7   132.0     996    1    35          
2020-02-26 18   15.6   131.4     996    1    35          
2020-02-27 00   15.5   130.8     996    1    35          
2020-02-27 06   15.3   129.9     999    1    35          
2020-02-27 12   15.3   129.6     999    1    35          
2020-02-27 18   15.2   128.9     996    1    35          
2020-02-28 00   15.3   128.3     996    1    35          
2020-02-28 06   15.5   127.0     999    1    35          
2020-02-28 12   15.6   125.9     999    1    35          
2020-02-28 18   15.7   125.1     998    1    35          
2020-02-29 00   16.3   124.3    1000         30          
2020-02-29 06   16.8   123.8     996         30          
2020-02-29 12   17.5   123.4     998         30          
2020-02-29 18   18.1   123.6     998         30          
2020-03-01 00   18.2   124.0    1000         30          
2020-03-01 06   18.1   124.6    1001         25          
2020-03-01 12   18.2   125.7    1004         25          
Winds are 10-min average.

Tropical cyclone tracks developed by Michael Bath using operational warnings and advisories and Google Maps.


Document: tropical_cyclone_esther.htm
Updated: 17 June 2020
[Australian Severe Weather index] [Copyright Notice] [Email Contacts] [Search This Site] [Privacy Policy]


Main Index Home Page Stock Weather Photos Extreme Storms Discussion Storm News and Storm Chasing Reports Tropical Cyclones / Hurricanes / Typhoons Weather Data and Links Wild Fires / Bushfires Weather Observation Techniques Weather Picture Catalogue Tornado Pictures and Reports Stock Video Footage and DVDs for sale